Time;durP1;ratioP1;P1;durP2;ratioP2;P2;SDS_P1;SDS_P2;PMS_P1;PMS_P2;Temp;Humidity;BMP_temperature;BMP_pressure;BME280_temperature;BME280_humidity;BME280_pressure;Samples;Min_cycle;Max_cycle;Signal;HPM_P1;HPM_P2
2023/10/02 00:01:48;;;;;;;0.90;0.50;;;;;;;-143.84;46.15;45024.31;5105933;28;20512;-57
2023/10/02 00:04:18;;;;;;;1.53;0.63;;;;;;;-143.84;45.98;45045.25;5106249;28;20459;-58
2023/10/02 00:06:46;;;;;;;1.00;0.57;;;;;;;-143.84;45.94;45041.44;5105962;28;20552;-58
2023/10/02 00:09:13;;;;;;;0.90;0.60;;;;;;;-143.84;45.67;45047.16;5105923;28;20804;-58
2023/10/02 00:11:44;;;;;;;1.03;0.70;;;;;;;-143.84;45.96;45010.97;5106078;28;20431;-58
2023/10/02 00:14:22;;;;;;;0.80;0.40;;;;;;;-143.84;45.67;45045.25;5106092;28;20443;-58
2023/10/02 00:17:00;;;;;;;0.83;0.43;;;;;;;-143.84;45.93;45043.34;5105709;28;20995;-60
2023/10/02 00:19:28;;;;;;;1.10;0.90;;;;;;;-143.84;45.87;45039.53;5105712;28;20475;-60
2023/10/02 00:22:03;;;;;;;1.53;0.60;;;;;;;-143.84;46.13;45070.00;5105477;28;20512;-60
2023/10/02 00:24:33;;;;;;;1.00;0.70;;;;;;;-143.84;45.98;45031.94;5105625;28;20885;-60
2023/10/02 00:27:03;;;;;;;1.57;0.63;;;;;;;-143.84;46.43;45049.06;5105411;28;20439;-60
2023/10/02 00:29:31;;;;;;;0.80;0.63;;;;;;;-143.84;46.39;45043.34;5105500;28;21268;-60
2023/10/02 00:31:58;;;;;;;0.80;0.40;;;;;;;-143.84;46.49;45039.53;5105543;28;21018;-60
2023/10/02 00:34:32;;;;;;;1.63;0.90;;;;;;;-143.84;46.60;45045.25;5105266;28;20450;-60
2023/10/02 00:37:05;;;;;;;0.90;0.60;;;;;;;-143.84;46.87;45047.16;5105393;28;20455;-60
2023/10/02 00:39:33;;;;;;;0.80;0.50;;;;;;;-143.84;46.72;45054.78;5105225;28;20498;-60
2023/10/02 00:42:17;;;;;;;0.90;0.50;;;;;;;-143.84;46.99;45039.53;5105288;28;20500;-60
2023/10/02 00:44:54;;;;;;;0.90;0.60;;;;;;;-143.84;46.99;45056.69;5105300;28;20440;-60
2023/10/02 00:47:47;;;;;;;1.17;0.70;;;;;;;-143.84;47.12;45049.06;5105458;28;20440;-60
2023/10/02 00:50:18;;;;;;;0.90;0.70;;;;;;;-143.84;47.17;45102.38;5104493;28;20453;-60
2023/10/02 00:52:52;;;;;;;0.90;0.60;;;;;;;-143.84;47.23;45054.78;5091467;28;20451;-60
2023/10/02 00:55:20;;;;;;;0.80;0.50;;;;;;;-143.84;47.34;45039.53;5091380;28;20504;-60
2023/10/02 00:57:51;;;;;;;1.50;1.17;;;;;;;-143.84;47.38;45060.50;5091337;28;20811;-60
2023/10/02 01:00:21;;;;;;;0.80;0.60;;;;;;;-143.84;47.54;45062.41;5091251;28;20598;-60
2023/10/02 01:02:50;;;;;;;0.80;0.40;;;;;;;-143.84;47.39;45049.06;5091117;28;20444;-60
2023/10/02 01:05:21;;;;;;;1.40;0.83;;;;;;;-143.84;47.46;45054.78;5090890;28;20468;-60
2023/10/02 01:07:53;;;;;;;1.00;0.60;;;;;;;-143.84;47.58;45064.31;5090700;28;20957;-60
2023/10/02 01:10:23;;;;;;;1.00;0.57;;;;;;;-143.84;47.65;45052.88;5091425;28;20447;-60
2023/10/02 01:13:01;;;;;;;1.00;0.90;;;;;;;-143.84;47.68;45087.16;5091193;28;20794;-60
2023/10/02 01:15:29;;;;;;;0.80;0.43;;;;;;;-143.84;47.61;45056.69;5091241;28;20470;-60
2023/10/02 01:18:21;;;;;;;0.90;0.50;;;;;;;-143.84;47.70;45043.34;5091280;28;20439;-60
2023/10/02 01:20:49;;;;;;;0.80;0.50;;;;;;;-143.84;47.71;45045.25;5090773;28;21189;-60
2023/10/02 01:23:22;;;;;;;0.80;0.50;;;;;;;-143.84;47.69;45071.91;5091166;28;20457;-60
2023/10/02 01:25:50;;;;;;;0.80;0.40;;;;;;;-143.84;48.05;45037.66;5090973;28;20447;-60
2023/10/02 01:28:20;;;;;;;1.00;0.70;;;;;;;-143.84;47.84;45071.91;5090983;28;20447;-60
2023/10/02 01:30:50;;;;;;;1.20;0.90;;;;;;;-143.84;47.72;45073.81;5090824;28;20504;-60
2023/10/02 01:33:21;;;;;;;0.90;0.80;;;;;;;-143.84;47.77;45060.50;5091034;28;21334;-60
2023/10/02 01:35:50;;;;;;;0.80;0.43;;;;;;;-143.84;48.00;45052.88;5090897;28;20468;-60
2023/10/02 01:38:27;;;;;;;1.73;0.60;;;;;;;-143.84;48.20;45054.78;5090652;28;20525;-60
2023/10/02 01:41:02;;;;;;;1.03;0.70;;;;;;;-143.84;47.84;45096.66;5090366;28;21018;-60
2023/10/02 01:43:32;;;;;;;0.97;0.70;;;;;;;-143.84;47.85;45071.91;5090501;28;20446;-60
2023/10/02 01:46:01;;;;;;;0.80;0.50;;;;;;;-143.84;47.71;45071.91;5090879;28;20443;-60
2023/10/02 01:48:40;;;;;;;0.80;0.50;;;;;;;-143.84;47.71;45071.91;5090597;28;20447;-60
2023/10/02 01:51:21;;;;;;;1.83;1.07;;;;;;;-143.84;47.72;45066.22;5090884;28;20507;-60
2023/10/02 01:53:54;;;;;;;1.23;0.93;;;;;;;-143.84;47.50;45064.31;5090365;28;20443;-62
2023/10/02 01:56:24;;;;;;;0.83;0.60;;;;;;;-143.84;47.69;45075.72;5090344;28;20530;-62
2023/10/02 01:58:52;;;;;;;0.80;0.40;;;;;;;-143.84;47.54;45068.13;5090316;28;20448;-63
2023/10/02 02:01:21;;;;;;;0.80;0.40;;;;;;;-143.84;47.75;45100.47;5090024;28;20493;-61
2023/10/02 02:03:50;;;;;;;0.90;0.50;;;;;;;-143.84;47.80;45062.41;5089186;28;20451;-61
2023/10/02 02:06:20;;;;;;;1.70;1.10;;;;;;;-143.84;47.72;45054.78;5090134;28;20446;-62
2023/10/02 02:08:53;;;;;;;2.10;0.60;;;;;;;-143.84;47.82;45049.06;5090038;28;20536;-62
2023/10/02 02:11:24;;;;;;;0.80;0.40;;;;;;;-143.84;47.57;45054.78;5089853;28;20455;-63
2023/10/02 02:13:52;;;;;;;3.90;1.73;;;;;;;-143.84;47.80;45070.00;5090100;28;20475;-62
2023/10/02 02:16:31;;;;;;;1.47;1.03;;;;;;;-143.84;47.69;45049.06;5089952;28;21306;-62
2023/10/02 02:19:01;;;;;;;0.80;0.47;;;;;;;-143.84;47.64;45064.31;5089655;28;20442;-63
2023/10/02 02:21:29;;;;;;;0.80;0.40;;;;;;;-143.84;47.26;45056.69;5090076;28;20576;-62
2023/10/02 02:24:07;;;;;;;1.27;0.97;;;;;;;-143.84;46.81;45033.84;5090155;28;20450;-62
2023/10/02 02:26:37;;;;;;;0.90;0.60;;;;;;;-143.84;46.63;45068.13;5089803;28;20529;-62
2023/10/02 02:29:05;;;;;;;0.80;0.60;;;;;;;-143.84;46.24;45060.50;5089635;28;20459;-62
2023/10/02 02:31:33;;;;;;;0.90;0.50;;;;;;;-143.84;46.33;45066.22;5089524;28;20448;-62
2023/10/02 02:34:02;;;;;;;2.40;0.50;;;;;;;-143.84;46.29;45070.00;5089457;28;20992;-62
2023/10/02 02:36:34;;;;;;;0.80;0.50;;;;;;;-143.84;46.24;45075.72;5089551;28;20440;-62
2023/10/02 02:39:17;;;;;;;0.80;0.40;;;;;;;-143.84;46.35;45079.53;5089164;28;20486;-62
2023/10/02 02:41:48;;;;;;;0.80;0.47;;;;;;;-143.84;46.16;45050.97;5089477;28;20514;-62
2023/10/02 02:44:39;;;;;;;0.80;0.40;;;;;;;-143.84;45.97;45045.25;5089708;28;20454;-62
2023/10/02 02:47:08;;;;;;;0.80;0.40;;;;;;;-143.84;46.01;45049.06;5089197;28;20447;-62
2023/10/02 02:49:51;;;;;;;12.10;0.60;;;;;;;-143.84;45.89;45037.66;5089419;28;20438;-62
2023/10/02 02:52:20;;;;;;;1.20;0.77;;;;;;;-143.84;45.74;45052.88;5088999;28;20441;-62
2023/10/02 02:54:48;;;;;;;0.80;0.40;;;;;;;-143.84;45.55;45058.59;5089223;28;20436;-62
2023/10/02 02:57:25;;;;;;;0.80;0.70;;;;;;;-143.84;45.59;45077.63;5089429;28;20968;-62
2023/10/02 03:00:24;;;;;;;0.90;0.50;;;;;;;-143.84;45.52;45087.16;5088935;28;20462;-62
2023/10/02 03:02:44;;;;;;;0.80;0.50;;;;;;;-143.84;45.27;45033.84;5088871;28;20435;-62
2023/10/02 03:05:12;;;;;;;0.80;0.40;;;;;;;-143.84;44.89;45075.72;5088909;28;20455;-62
2023/10/02 03:07:40;;;;;;;0.80;0.40;;;;;;;-143.84;45.01;45068.13;5089114;28;20534;-62
2023/10/02 03:10:11;;;;;;;0.80;0.40;;;;;;;-143.84;44.78;45037.66;5089054;28;20892;-62
2023/10/02 03:12:44;;;;;;;1.27;0.70;;;;;;;-143.84;44.61;45052.88;5088710;28;20458;-62
2023/10/02 03:15:14;;;;;;;0.80;0.50;;;;;;;-143.84;44.41;45064.31;5088577;28;20450;-62
2023/10/02 03:17:42;;;;;;;0.90;0.50;;;;;;;-143.84;44.38;45050.97;5088757;28;20965;-62
2023/10/02 03:20:22;;;;;;;1.27;1.03;;;;;;;-143.84;44.53;45064.31;5088668;28;20493;-62
2023/10/02 03:22:53;;;;;;;0.80;0.40;;;;;;;-143.84;44.38;45049.06;5077865;28;20459;-60
2023/10/02 03:25:40;;;;;;;0.80;0.43;;;;;;;-143.84;44.21;45030.03;5068841;28;20798;-60
2023/10/02 03:28:27;;;;;;;1.10;0.70;;;;;;;-143.84;43.63;45071.91;5068652;28;20447;-59
2023/10/02 03:30:54;;;;;;;0.80;0.40;;;;;;;-143.84;44.01;45073.81;5068749;28;20462;-59
2023/10/02 03:33:21;;;;;;;0.80;0.40;;;;;;;-143.84;43.59;45033.84;5068547;28;20448;-59
2023/10/02 03:35:58;;;;;;;1.43;0.83;;;;;;;-143.84;43.74;45062.41;5067921;28;20424;-59
2023/10/02 03:38:32;;;;;;;0.90;0.63;;;;;;;-143.84;43.65;45049.06;5067293;28;20452;-59
2023/10/02 03:41:03;;;;;;;1.63;1.20;;;;;;;-143.84;43.71;45068.13;5067588;28;20503;-59
2023/10/02 03:43:43;;;;;;;0.83;0.47;;;;;;;-143.84;43.62;45068.13;5067606;28;20444;-60
2023/10/02 03:46:15;;;;;;;0.80;0.60;;;;;;;-143.84;43.59;45018.59;5067718;28;20456;-60
2023/10/02 03:48:50;;;;;;;0.80;0.40;;;;;;;-143.84;43.92;45035.75;5067838;28;20840;-60
2023/10/02 03:51:35;;;;;;;1.13;0.70;;;;;;;-143.84;44.97;45049.06;5067141;28;20440;-60
2023/10/02 03:54:17;;;;;;;0.90;0.70;;;;;;;-143.84;48.33;45060.50;5068198;28;20497;-59
2023/10/02 03:56:47;;;;;;;0.90;0.50;;;;;;;-143.84;51.21;45028.13;5082215;28;20544;-60
2023/10/02 03:59:20;;;;;;;0.90;0.50;;;;;;;-143.84;53.95;45035.75;5088167;28;20454;-60
2023/10/02 04:01:49;;;;;;;0.80;0.40;;;;;;;-143.84;55.25;45062.41;5088441;28;20471;-60
2023/10/02 04:04:21;;;;;;;0.80;0.50;;;;;;;-143.84;56.26;45052.88;5088769;28;20470;-59
2023/10/02 04:06:53;;;;;;;1.57;1.27;;;;;;;-143.84;57.20;45056.69;5088289;28;20451;-59
2023/10/02 04:09:23;;;;;;;0.90;0.57;;;;;;;-143.84;58.08;45054.78;5088261;28;20536;-59
2023/10/02 04:11:51;;;;;;;0.83;0.40;;;;;;;-143.84;57.85;45039.53;5088629;28;20512;-59
2023/10/02 04:14:31;;;;;;;0.80;0.40;;;;;;;-143.84;57.13;45054.78;5088354;28;20982;-59
2023/10/02 04:17:09;;;;;;;0.80;0.40;;;;;;;-143.84;57.05;45050.97;5088413;28;21003;-59
2023/10/02 04:19:40;;;;;;;0.87;0.50;;;;;;;-143.84;57.68;45037.66;5088192;28;20975;-60
2023/10/02 04:22:16;;;;;;;0.80;0.50;;;;;;;-143.84;58.61;45079.53;5088189;28;20487;-59
2023/10/02 04:24:51;;;;;;;4.20;1.57;;;;;;;-143.84;59.80;45081.44;5088322;28;20460;-59
2023/10/02 04:27:22;;;;;;;1.17;0.77;;;;;;;-143.84;60.00;45054.78;5090886;28;20436;-60
2023/10/02 04:32:49;;;;;;;0.80;0.50;;;;;;;-143.84;60.02;45085.25;5126921;27;20528;-60
2023/10/02 04:37:58;;;;;;;0.80;0.50;;;;;;;-143.84;59.84;45090.97;5126654;28;20436;-60
2023/10/02 04:40:37;;;;;;;0.90;0.60;;;;;;;-143.84;60.32;45064.31;5126746;27;20452;-60
2023/10/02 04:43:19;;;;;;;0.90;0.80;;;;;;;-143.84;60.11;45075.72;5126835;27;20446;-60
2023/10/02 04:45:47;;;;;;;1.27;1.13;;;;;;;-143.84;59.64;45075.72;5127172;27;20498;-60
2023/10/02 04:48:16;;;;;;;0.90;0.70;;;;;;;-143.84;60.03;45085.25;5126909;27;20868;-60
2023/10/02 04:50:46;;;;;;;1.10;0.67;;;;;;;-143.84;59.48;45087.16;5126601;27;20482;-60
2023/10/02 04:53:22;;;;;;;1.07;0.97;;;;;;;-143.84;59.30;45068.13;5126674;27;20444;-60
2023/10/02 04:56:06;;;;;;;0.80;0.40;;;;;;;-143.84;59.32;45062.41;5126369;27;20448;-59
2023/10/02 04:58:39;;;;;;;0.80;0.40;;;;;;;-143.84;59.44;45079.53;5126574;27;20557;-60
2023/10/02 05:01:28;;;;;;;1.00;0.87;;;;;;;-143.84;59.03;45085.25;5126327;27;20440;-60
2023/10/02 05:04:01;;;;;;;0.80;0.40;;;;;;;-143.84;58.60;45066.22;5126286;27;20531;-60
2023/10/02 05:06:44;;;;;;;0.93;0.60;;;;;;;-143.84;57.60;45083.34;5126152;28;20929;-60
2023/10/02 05:09:17;;;;;;;0.80;0.40;;;;;;;-143.84;57.54;45066.22;5126392;27;20468;-60
2023/10/02 05:11:50;;;;;;;0.90;0.60;;;;;;;-143.84;57.85;45056.69;5126148;27;20485;-60
2023/10/02 05:14:18;;;;;;;0.80;0.50;;;;;;;-143.84;60.00;45047.16;5126123;27;20992;-60
2023/10/02 05:16:46;;;;;;;0.80;0.47;;;;;;;-143.84;62.34;45075.72;5126305;27;20476;-60
2023/10/02 05:19:15;;;;;;;1.37;0.70;;;;;;;-143.84;65.65;45075.72;5126081;27;20446;-59
2023/10/02 05:21:49;;;;;;;1.00;0.90;;;;;;;-143.84;68.05;45050.97;5126045;27;20466;-59
2023/10/02 05:24:17;;;;;;;0.90;0.60;;;;;;;-143.84;70.27;45075.72;5126205;27;20546;-60
2023/10/02 05:26:46;;;;;;;0.80;0.60;;;;;;;-143.84;72.26;45066.22;5126120;27;20456;-60
2023/10/02 05:29:17;;;;;;;0.80;0.40;;;;;;;-143.84;73.10;45068.13;5126085;27;20857;-60
2023/10/02 05:31:45;;;;;;;1.00;0.73;;;;;;;-143.84;73.76;45068.13;5125507;27;20948;-60
2023/10/02 05:34:21;;;;;;;0.80;0.47;;;;;;;-143.84;74.05;45083.34;5125578;27;20522;-60
2023/10/02 05:37:04;;;;;;;0.80;0.40;;;;;;;-143.84;74.16;45073.81;5125623;27;20951;-59
2023/10/02 05:39:39;;;;;;;0.80;0.40;;;;;;;-143.84;73.22;45089.06;5125491;27;20442;-59
2023/10/02 05:42:13;;;;;;;0.90;0.67;;;;;;;-143.84;73.07;45062.41;5123502;27;21005;-59
2023/10/02 05:44:41;;;;;;;1.20;0.90;;;;;;;-143.84;73.29;45085.25;5112035;28;20439;-60
2023/10/02 05:47:08;;;;;;;0.80;0.50;;;;;;;-143.84;72.87;45090.97;5111809;28;20978;-59
2023/10/02 05:49:43;;;;;;;0.93;0.50;;;;;;;-143.84;72.54;45096.66;5111936;28;20542;-60
2023/10/02 05:52:10;;;;;;;0.90;0.50;;;;;;;-143.84;72.59;45098.56;5111547;28;21020;-59
2023/10/02 05:54:40;;;;;;;1.17;0.93;;;;;;;-143.84;72.06;45087.16;5111496;28;20434;-60
2023/10/02 05:57:12;;;;;;;1.20;0.97;;;;;;;-143.84;71.88;45085.25;5111701;28;21050;-59
2023/10/02 05:59:45;;;;;;;0.83;0.50;;;;;;;-143.84;71.75;45104.28;5111953;28;20450;-60
2023/10/02 06:02:14;;;;;;;1.00;0.50;;;;;;;-143.84;72.20;45071.91;5111953;28;20820;-59
2023/10/02 06:04:47;;;;;;;0.90;0.70;;;;;;;-143.84;71.48;45094.78;5111143;28;20467;-60
2023/10/02 06:07:19;;;;;;;2.50;0.60;;;;;;;-143.84;71.76;45102.38;5110760;28;20439;-60
2023/10/02 06:09:47;;;;;;;0.80;0.43;;;;;;;-143.84;71.33;45079.53;5111281;28;20447;-59
2023/10/02 06:12:18;;;;;;;0.90;0.60;;;;;;;-143.84;71.54;45083.34;5110956;28;20482;-60
2023/10/02 06:14:45;;;;;;;0.80;0.50;;;;;;;-143.84;71.92;45054.78;5110791;28;20904;-60
2023/10/02 06:17:13;;;;;;;1.47;0.97;;;;;;;-143.84;71.94;45070.00;5111259;28;20880;-60
2023/10/02 06:19:44;;;;;;;1.00;0.80;;;;;;;-143.84;71.45;45089.06;5111124;28;20431;-60
2023/10/02 06:22:13;;;;;;;1.10;0.90;;;;;;;-143.84;71.11;45085.25;5111185;28;20888;-60
2023/10/02 06:24:41;;;;;;;1.07;0.97;;;;;;;-143.84;70.79;45073.81;5110980;28;20439;-60
2023/10/02 06:27:13;;;;;;;0.80;0.47;;;;;;;-143.84;70.67;45071.91;5111234;28;20443;-60
2023/10/02 06:29:44;;;;;;;0.80;0.40;;;;;;;-143.84;70.41;45083.34;5111243;28;20446;-60
2023/10/02 06:32:19;;;;;;;1.07;0.67;;;;;;;-143.84;69.69;45071.91;5110882;28;21013;-60
2023/10/02 06:34:50;;;;;;;0.80;0.50;;;;;;;-143.84;69.17;45075.72;5111089;28;20437;-60
2023/10/02 06:37:19;;;;;;;1.23;0.70;;;;;;;-143.84;69.15;45094.78;5111028;28;20509;-60
2023/10/02 06:40:02;;;;;;;0.80;0.40;;;;;;;-143.84;68.81;45075.72;5111031;28;20526;-59
2023/10/02 06:42:30;;;;;;;1.13;1.03;;;;;;;-143.84;68.34;45077.63;5110808;28;20531;-60
2023/10/02 06:45:01;;;;;;;3.60;0.63;;;;;;;-143.84;67.47;45083.34;5110649;28;20472;-60
2023/10/02 06:47:30;;;;;;;0.80;0.40;;;;;;;-143.84;67.11;45075.72;5110702;28;20449;-60
2023/10/02 06:50:03;;;;;;;0.80;0.40;;;;;;;-143.84;66.67;45075.72;5110753;28;20444;-59
2023/10/02 06:52:32;;;;;;;0.80;0.50;;;;;;;-143.84;65.84;45073.81;5110739;28;20480;-59
2023/10/02 06:55:01;;;;;;;0.90;0.60;;;;;;;-143.84;65.97;45075.72;5109422;28;20933;-60
2023/10/02 06:57:28;;;;;;;0.80;0.40;;;;;;;-143.84;65.72;45079.53;5110533;28;20444;-60
2023/10/02 06:59:56;;;;;;;1.00;0.70;;;;;;;-143.84;65.02;45054.78;5110366;28;20610;-60
2023/10/02 07:02:25;;;;;;;1.43;0.83;;;;;;;-143.84;64.85;45073.81;5110478;28;21152;-60
2023/10/02 07:04:54;;;;;;;0.90;0.60;;;;;;;-143.84;63.83;45056.69;5110535;28;20447;-60
2023/10/02 07:07:25;;;;;;;0.90;0.60;;;;;;;-143.84;64.17;45085.25;5110624;28;20515;-60
2023/10/02 07:09:54;;;;;;;0.83;0.47;;;;;;;-143.84;63.56;45062.41;5110332;28;20521;-60
2023/10/02 07:12:22;;;;;;;0.90;0.53;;;;;;;-143.84;63.07;45071.91;5110129;28;20486;-60
2023/10/02 07:14:49;;;;;;;0.80;0.50;;;;;;;-143.84;62.97;45081.44;5110136;28;20436;-60
2023/10/02 07:17:23;;;;;;;0.80;0.50;;;;;;;-143.84;62.56;45077.63;5110130;28;20445;-60
2023/10/02 07:19:51;;;;;;;0.80;0.50;;;;;;;-143.84;63.41;45073.81;5110203;28;20445;-60
2023/10/02 07:22:23;;;;;;;1.77;1.17;;;;;;;-143.84;62.92;45083.34;5109941;28;20445;-60
2023/10/02 07:24:56;;;;;;;0.90;0.63;;;;;;;-143.84;62.59;45062.41;5110174;28;20516;-60
2023/10/02 07:27:25;;;;;;;0.80;0.50;;;;;;;-143.84;62.72;45083.34;5110144;28;20451;-60
2023/10/02 07:29:57;;;;;;;0.90;0.60;;;;;;;-143.84;62.39;45041.44;5109784;28;20441;-60
2023/10/02 07:32:27;;;;;;;1.00;0.70;;;;;;;-143.84;62.17;45075.72;5109466;28;20546;-60
2023/10/02 07:34:55;;;;;;;0.83;0.53;;;;;;;-143.84;62.35;45085.25;5109748;28;20959;-60
2023/10/02 07:37:24;;;;;;;0.80;0.50;;;;;;;-143.84;62.77;45073.81;5109646;28;20442;-59
2023/10/02 07:40:00;;;;;;;0.90;0.57;;;;;;;-143.84;63.10;45068.13;5109677;28;20445;-60
2023/10/02 07:42:32;;;;;;;7.03;1.00;;;;;;;-143.84;62.98;45070.00;5109588;28;20446;-60
2023/10/02 07:45:12;;;;;;;0.80;0.40;;;;;;;-143.84;63.00;45068.13;5109506;28;20445;-60
2023/10/02 07:50:41;;;;;;;2.37;0.47;;;;;;;-143.84;63.61;45043.34;5046108;28;21029;-60
2023/10/02 07:53:09;;;;;;;1.40;1.30;;;;;;;-143.84;64.05;45064.31;5046141;28;20494;-60
2023/10/02 07:55:42;;;;;;;2.60;0.63;;;;;;;-143.84;64.13;45066.22;5075001;28;20438;-60
2023/10/02 07:58:09;;;;;;;0.90;0.60;;;;;;;-143.84;63.76;45090.97;5109245;28;20465;-59
2023/10/02 08:00:41;;;;;;;0.80;0.50;;;;;;;-143.84;63.85;45075.72;5109378;28;20951;-60
2023/10/02 08:06:20;;;;;;;1.23;0.80;;;;;;;-143.84;63.96;45066.22;5098134;28;20934;-60
2023/10/02 08:08:54;;;;;;;1.40;1.07;;;;;;;-143.84;63.97;45079.53;5109539;28;20449;-60
2023/10/02 08:11:25;;;;;;;1.00;0.80;;;;;;;-143.84;64.37;45050.97;5109285;28;20828;-60
2023/10/02 08:13:52;;;;;;;3.43;0.90;;;;;;;-143.84;63.78;45071.91;5109361;28;20449;-60
2023/10/02 08:16:22;;;;;;;0.90;0.50;;;;;;;-143.84;63.81;45077.63;5109302;28;20534;-60
2023/10/02 08:21:35;;;;;;;0.80;0.40;;;;;;;-143.84;63.58;45104.28;5108945;28;20578;-60
2023/10/02 08:24:10;;;;;;;0.80;0.43;;;;;;;-143.84;63.79;45045.25;5108952;28;20443;-60
2023/10/02 08:26:43;;;;;;;0.80;0.50;;;;;;;-143.84;63.47;45064.31;5109280;28;20451;-60
2023/10/02 08:29:13;;;;;;;0.90;0.57;;;;;;;-143.84;63.17;45049.06;5109106;28;21006;-60
2023/10/02 08:31:44;;;;;;;0.80;0.50;;;;;;;-143.84;63.42;45113.81;5108675;28;20487;-60
2023/10/02 08:34:19;;;;;;;0.93;0.83;;;;;;;-143.84;62.14;45081.44;5108804;28;20522;-60
2023/10/02 08:36:47;;;;;;;0.83;0.40;;;;;;;-143.84;62.46;45066.22;5108928;28;20507;-60
2023/10/02 08:39:21;;;;;;;0.80;0.40;;;;;;;-143.84;62.29;45062.41;5108930;28;20453;-60
2023/10/02 08:41:51;;;;;;;0.90;0.47;;;;;;;-143.84;62.23;45075.72;5108541;28;20462;-60
2023/10/02 08:44:18;;;;;;;1.17;0.80;;;;;;;-143.84;61.97;45050.97;5108607;28;20441;-60
2023/10/02 08:46:47;;;;;;;0.80;0.40;;;;;;;-143.84;61.51;45064.31;5108577;28;20441;-60
2023/10/02 08:49:16;;;;;;;0.80;0.50;;;;;;;-143.84;60.69;45060.50;5108079;28;20450;-60
2023/10/02 08:51:49;;;;;;;0.97;0.70;;;;;;;-143.84;60.63;45070.00;5108235;28;20447;-60
2023/10/02 08:54:17;;;;;;;0.80;0.40;;;;;;;-143.84;60.70;45033.84;5108858;28;20556;-60
2023/10/02 08:56:45;;;;;;;1.13;0.70;;;;;;;-143.84;60.79;45068.13;5108860;28;20545;-60
2023/10/02 08:59:26;;;;;;;1.60;1.50;;;;;;;-143.84;59.11;45060.50;5108641;28;20443;-60
2023/10/02 09:02:07;;;;;;;0.90;0.50;;;;;;;-143.84;58.40;45035.75;5108844;28;20817;-60
2023/10/02 09:04:34;;;;;;;1.43;0.60;;;;;;;-143.84;57.08;45056.69;5108856;28;20525;-60
2023/10/02 09:07:14;;;;;;;1.10;0.70;;;;;;;-143.84;56.21;45037.66;5108680;28;20500;-60
2023/10/02 09:09:45;;;;;;;1.00;0.50;;;;;;;-143.84;53.86;45052.88;5108797;28;20448;-60
2023/10/02 09:12:16;;;;;;;0.90;0.60;;;;;;;-143.84;53.75;45083.34;5108393;28;20490;-60
2023/10/02 09:14:44;;;;;;;1.20;0.77;;;;;;;-143.84;52.72;45033.84;5108542;28;20470;-60
2023/10/02 09:17:19;;;;;;;0.80;0.40;;;;;;;-143.84;51.87;45056.69;5108588;28;20438;-60
2023/10/02 09:19:54;;;;;;;0.80;0.50;;;;;;;-143.84;51.76;45031.94;5112532;28;20842;-60
2023/10/02 09:22:23;;;;;;;0.90;0.77;;;;;;;-143.84;51.80;45016.69;5112411;28;20442;-60
2023/10/02 09:25:09;;;;;;;0.90;0.50;;;;;;;-143.84;51.68;45043.34;5112261;28;20484;-60
2023/10/02 09:27:41;;;;;;;3.47;1.17;;;;;;;-143.84;51.81;45056.69;5112232;28;20455;-60
2023/10/02 09:30:17;;;;;;;1.60;0.83;;;;;;;-143.84;52.13;45070.00;5112160;28;20439;-60
2023/10/02 09:32:50;;;;;;;0.80;0.43;;;;;;;-143.84;51.40;45043.34;5111880;28;20477;-60
2023/10/02 09:35:29;;;;;;;0.90;0.70;;;;;;;-143.84;51.57;45041.44;5112168;28;20435;-60
2023/10/02 09:38:02;;;;;;;0.90;0.53;;;;;;;-143.84;50.81;45039.53;5112193;28;20473;-59
2023/10/02 09:40:53;;;;;;;0.80;0.40;;;;;;;-143.84;50.65;45039.53;5112128;28;20438;-60
2023/10/02 09:43:21;;;;;;;1.23;0.80;;;;;;;-143.84;50.83;45037.66;5111802;28;20529;-60
2023/10/02 09:45:53;;;;;;;1.10;0.60;;;;;;;-143.84;51.07;45033.84;5111728;28;20439;-60
2023/10/02 09:48:53;;;;;;;1.20;1.10;;;;;;;-143.84;50.45;45031.94;5111826;28;20508;-60
2023/10/02 09:51:29;;;;;;;0.80;0.40;;;;;;;-143.84;50.01;45022.41;5112037;28;20457;-60
2023/10/02 09:54:06;;;;;;;1.00;0.77;;;;;;;-143.84;49.37;45054.78;5111940;28;20488;-60
2023/10/02 09:56:53;;;;;;;0.83;0.50;;;;;;;-143.84;49.62;45054.78;5111705;28;20435;-60
2023/10/02 09:59:22;;;;;;;0.90;0.70;;;;;;;-143.84;50.67;45012.88;5112014;28;20514;-60
2023/10/02 10:08:18;;;;;;;0.80;0.40;;;;;;;-143.84;51.55;45045.25;5111778;28;20919;-60
2023/10/02 10:10:47;;;;;;;2.20;1.40;;;;;;;-143.84;51.26;45041.44;5111956;28;20442;-60
2023/10/02 10:13:26;;;;;;;1.37;0.63;;;;;;;-143.84;51.30;45047.16;5111338;28;20478;-60
2023/10/02 10:16:34;;;;;;;1.07;0.97;;;;;;;-143.84;50.59;45007.19;5111280;28;20446;-60
2023/10/02 10:19:27;;;;;;;0.90;0.50;;;;;;;-143.84;49.85;45045.25;5048004;28;21016;-60
2023/10/02 10:21:56;;;;;;;4.13;1.00;;;;;;;-143.84;49.68;45010.97;5047972;28;20438;-60
2023/10/02 10:25:22;;;;;;;0.90;0.70;;;;;;;-143.84;49.43;45035.75;5091189;28;20454;-60
2023/10/02 10:28:04;;;;;;;0.80;0.40;;;;;;;-143.84;47.96;45012.88;5111277;28;20443;-60
2023/10/02 10:30:39;;;;;;;0.90;0.50;;;;;;;-143.84;47.81;45026.22;5110689;28;20454;-61
2023/10/02 10:33:38;;;;;;;1.10;0.60;;;;;;;-143.84;47.99;45026.22;5110986;28;21030;-60
2023/10/02 10:36:41;;;;;;;1.00;0.53;;;;;;;-143.84;47.56;45033.84;5110923;28;20462;-60
2023/10/02 10:39:44;;;;;;;0.80;0.40;;;;;;;-143.84;46.78;45033.84;5110956;28;20503;-60
2023/10/02 10:42:11;;;;;;;0.90;0.50;;;;;;;-143.84;47.12;45028.13;5087520;28;20443;-60
2023/10/02 10:44:43;;;;;;;0.80;0.43;;;;;;;-143.84;46.21;44991.94;5110747;28;20496;-60
2023/10/02 10:47:14;;;;;;;1.57;0.80;;;;;;;-143.84;46.29;45016.69;5110759;28;20473;-60
2023/10/02 10:50:11;;;;;;;1.20;0.70;;;;;;;-143.84;44.75;45030.03;5110650;28;20443;-60
2023/10/02 10:52:44;;;;;;;1.00;0.77;;;;;;;-143.84;42.52;45009.09;5110580;28;20500;-60
2023/10/02 10:55:36;;;;;;;1.33;1.23;;;;;;;-143.84;38.49;45033.84;5110602;28;20439;-60
2023/10/02 10:58:03;;;;;;;0.80;0.40;;;;;;;-143.84;36.95;45022.41;5110594;28;20488;-60
2023/10/02 11:00:35;;;;;;;0.80;0.50;;;;;;;-143.84;37.70;45020.50;5110524;28;20447;-60
2023/10/02 11:03:08;;;;;;;1.10;0.60;;;;;;;-143.84;37.02;45020.50;5110513;27;20956;-60
2023/10/02 11:05:37;;;;;;;1.20;0.70;;;;;;;-143.84;37.27;44999.56;5110430;28;20534;-60
2023/10/02 11:08:28;;;;;;;2.37;0.83;;;;;;;-143.84;36.57;45014.78;5113222;27;20450;-60
2023/10/02 11:11:04;;;;;;;4.53;0.90;;;;;;;-143.84;35.52;45022.41;5090173;28;20444;-60
2023/10/02 11:13:51;;;;;;;0.97;0.50;;;;;;;-143.84;36.64;44991.94;5089674;28;20534;-60
2023/10/02 11:16:30;;;;;;;0.80;0.40;;;;;;;-143.84;36.23;45014.78;5089846;28;20477;-60
2023/10/02 11:19:34;;;;;;;0.90;0.60;;;;;;;-143.84;36.44;44982.41;5089820;28;20440;-60
2023/10/02 11:22:02;;;;;;;1.40;0.90;;;;;;;-143.84;35.46;44974.81;5089786;28;20493;-60
2023/10/02 11:24:33;;;;;;;0.80;0.40;;;;;;;-143.84;34.44;44969.09;5089578;28;20471;-60
2023/10/02 11:27:07;;;;;;;1.80;0.77;;;;;;;-143.84;34.90;44991.94;5089828;28;20789;-60
2023/10/02 11:29:41;;;;;;;1.00;0.60;;;;;;;-143.84;34.61;44971.00;5089474;28;20526;-60
2023/10/02 11:32:22;;;;;;;1.30;0.70;;;;;;;-143.84;33.89;45030.03;5089500;28;20515;-60
2023/10/02 11:34:50;;;;;;;1.10;1.00;;;;;;;-143.84;34.08;45014.78;5095144;28;20983;-60
2023/10/02 11:37:18;;;;;;;0.80;0.40;;;;;;;-143.84;34.20;44999.56;5109719;28;20438;-60
2023/10/02 11:39:50;;;;;;;0.80;0.40;;;;;;;-143.84;34.45;44980.53;5109795;28;20447;-60
2023/10/02 11:42:19;;;;;;;0.80;0.50;;;;;;;-143.84;34.53;44990.03;5109223;28;20447;-60
2023/10/02 11:44:47;;;;;;;1.00;0.70;;;;;;;-143.84;33.71;44974.81;5109651;28;20489;-60
2023/10/02 11:47:14;;;;;;;3.10;0.70;;;;;;;-143.84;33.79;44972.91;5109367;28;21034;-60
2023/10/02 11:49:42;;;;;;;0.90;0.70;;;;;;;-143.84;33.25;44961.47;5109612;28;20479;-60
2023/10/02 11:52:09;;;;;;;1.17;0.90;;;;;;;-143.84;33.58;44980.53;5109698;28;20457;-60
2023/10/02 11:54:39;;;;;;;1.00;0.40;;;;;;;-143.84;34.25;44969.09;5109346;28;20516;-60
2023/10/02 11:57:09;;;;;;;0.80;0.50;;;;;;;-143.84;32.99;44999.56;5109296;28;20435;-60
2023/10/02 11:59:41;;;;;;;0.90;0.50;;;;;;;-143.84;32.96;44974.81;5109394;28;20522;-60
2023/10/02 12:02:11;;;;;;;1.00;0.73;;;;;;;-143.84;33.11;44972.91;5109240;28;20447;-60
2023/10/02 12:04:38;;;;;;;0.80;0.40;;;;;;;-143.84;32.80;44993.84;5109670;28;20442;-60
2023/10/02 12:07:06;;;;;;;1.40;1.00;;;;;;;-143.84;33.20;44988.13;5109644;28;20436;-60